sensor_id;sensor_type;location;lat;lon;timestamp;P1;durP1;ratioP1;P2;durP2;ratioP2
11422;SDS011;5768;51.476;7.210;2023-05-08T00:02:48;17.13;;;15.63;;
11422;SDS011;5768;51.476;7.210;2023-05-08T00:07:50;17.10;;;15.60;;
11422;SDS011;5768;51.476;7.210;2023-05-08T00:12:54;16.88;;;15.43;;
11422;SDS011;5768;51.476;7.210;2023-05-08T00:17:56;16.80;;;15.18;;
11422;SDS011;5768;51.476;7.210;2023-05-08T00:22:59;16.58;;;15.05;;
11422;SDS011;5768;51.476;7.210;2023-05-08T00:28:02;17.55;;;15.85;;
11422;SDS011;5768;51.476;7.210;2023-05-08T00:33:05;16.88;;;15.43;;
11422;SDS011;5768;51.476;7.210;2023-05-08T00:38:07;17.50;;;15.77;;
11422;SDS011;5768;51.476;7.210;2023-05-08T00:43:11;16.15;;;14.68;;
11422;SDS011;5768;51.476;7.210;2023-05-08T00:48:14;17.02;;;15.43;;
11422;SDS011;5768;51.476;7.210;2023-05-08T00:53:16;16.50;;;15.05;;
11422;SDS011;5768;51.476;7.210;2023-05-08T00:58:21;17.58;;;15.93;;
11422;SDS011;5768;51.476;7.210;2023-05-08T01:03:27;16.85;;;15.45;;
11422;SDS011;5768;51.476;7.210;2023-05-08T01:08:30;17.52;;;15.93;;
11422;SDS011;5768;51.476;7.210;2023-05-08T01:13:37;17.60;;;16.10;;
11422;SDS011;5768;51.476;7.210;2023-05-08T01:19:13;16.50;;;15.18;;
11422;SDS011;5768;51.476;7.210;2023-05-08T01:25:05;17.30;;;15.55;;
11422;SDS011;5768;51.476;7.210;2023-05-08T01:36:40;16.88;;;15.48;;
11422;SDS011;5768;51.476;7.210;2023-05-08T01:41:57;16.52;;;15.13;;
11422;SDS011;5768;51.476;7.210;2023-05-08T01:47:06;16.70;;;15.18;;
11422;SDS011;5768;51.476;7.210;2023-05-08T01:52:14;16.52;;;15.13;;
11422;SDS011;5768;51.476;7.210;2023-05-08T01:57:28;16.60;;;15.20;;
11422;SDS011;5768;51.476;7.210;2023-05-08T02:02:35;17.17;;;15.73;;
11422;SDS011;5768;51.476;7.210;2023-05-08T02:07:39;16.40;;;15.00;;
11422;SDS011;5768;51.476;7.210;2023-05-08T02:12:44;16.70;;;15.40;;
11422;SDS011;5768;51.476;7.210;2023-05-08T02:17:50;17.23;;;15.77;;
11422;SDS011;5768;51.476;7.210;2023-05-08T02:22:57;16.17;;;14.77;;
11422;SDS011;5768;51.476;7.210;2023-05-08T02:28:02;17.77;;;16.17;;
11422;SDS011;5768;51.476;7.210;2023-05-08T02:33:07;17.75;;;16.15;;
11422;SDS011;5768;51.476;7.210;2023-05-08T02:38:14;17.52;;;16.02;;
11422;SDS011;5768;51.476;7.210;2023-05-08T02:43:20;16.90;;;15.50;;
11422;SDS011;5768;51.476;7.210;2023-05-08T02:48:24;17.48;;;15.98;;
11422;SDS011;5768;51.476;7.210;2023-05-08T02:53:39;17.25;;;15.77;;
11422;SDS011;5768;51.476;7.210;2023-05-08T02:58:56;18.05;;;16.35;;
11422;SDS011;5768;51.476;7.210;2023-05-08T03:04:10;19.17;;;17.38;;
11422;SDS011;5768;51.476;7.210;2023-05-08T03:09:22;17.40;;;16.00;;
11422;SDS011;5768;51.476;7.210;2023-05-08T03:14:28;17.45;;;16.02;;
11422;SDS011;5768;51.476;7.210;2023-05-08T03:19:37;17.25;;;15.75;;
11422;SDS011;5768;51.476;7.210;2023-05-08T03:24:44;17.63;;;15.93;;
11422;SDS011;5768;51.476;7.210;2023-05-08T03:29:49;17.08;;;15.65;;
11422;SDS011;5768;51.476;7.210;2023-05-08T03:34:57;17.15;;;15.43;;
11422;SDS011;5768;51.476;7.210;2023-05-08T03:40:02;18.88;;;17.17;;
11422;SDS011;5768;51.476;7.210;2023-05-08T03:45:08;17.35;;;15.95;;
11422;SDS011;5768;51.476;7.210;2023-05-08T03:50:14;17.35;;;15.90;;
11422;SDS011;5768;51.476;7.210;2023-05-08T03:55:20;17.45;;;15.68;;
11422;SDS011;5768;51.476;7.210;2023-05-08T04:00:24;17.23;;;15.77;;
11422;SDS011;5768;51.476;7.210;2023-05-08T04:05:39;17.25;;;15.82;;
11422;SDS011;5768;51.476;7.210;2023-05-08T04:10:54;18.33;;;16.83;;
11422;SDS011;5768;51.476;7.210;2023-05-08T04:16:06;18.92;;;17.33;;
11422;SDS011;5768;51.476;7.210;2023-05-08T04:21:17;19.73;;;17.73;;
11422;SDS011;5768;51.476;7.210;2023-05-08T04:26:26;18.35;;;16.80;;
11422;SDS011;5768;51.476;7.210;2023-05-08T04:31:31;18.25;;;16.75;;
11422;SDS011;5768;51.476;7.210;2023-05-08T04:36:36;18.83;;;17.23;;
11422;SDS011;5768;51.476;7.210;2023-05-08T04:41:40;19.40;;;17.50;;
11422;SDS011;5768;51.476;7.210;2023-05-08T04:46:43;18.42;;;16.83;;
11422;SDS011;5768;51.476;7.210;2023-05-08T04:51:45;17.98;;;16.38;;
11422;SDS011;5768;51.476;7.210;2023-05-08T04:56:48;18.60;;;17.00;;
11422;SDS011;5768;51.476;7.210;2023-05-08T05:01:50;19.08;;;17.10;;
11422;SDS011;5768;51.476;7.210;2023-05-08T05:06:53;19.73;;;17.73;;
11422;SDS011;5768;51.476;7.210;2023-05-08T05:11:56;19.02;;;17.13;;
11422;SDS011;5768;51.476;7.210;2023-05-08T05:16:58;17.50;;;15.77;;
11422;SDS011;5768;51.476;7.210;2023-05-08T05:22:01;17.70;;;16.08;;
11422;SDS011;5768;51.476;7.210;2023-05-08T05:27:07;16.77;;;15.25;;
11422;SDS011;5768;51.476;7.210;2023-05-08T05:32:09;16.73;;;15.27;;
11422;SDS011;5768;51.476;7.210;2023-05-08T05:37:11;16.90;;;15.40;;
11422;SDS011;5768;51.476;7.210;2023-05-08T05:42:15;16.27;;;14.68;;
11422;SDS011;5768;51.476;7.210;2023-05-08T05:47:17;15.85;;;14.52;;
11422;SDS011;5768;51.476;7.210;2023-05-08T05:52:19;15.95;;;14.55;;
11422;SDS011;5768;51.476;7.210;2023-05-08T05:57:23;16.42;;;14.82;;
11422;SDS011;5768;51.476;7.210;2023-05-08T06:02:25;15.80;;;14.30;;
11422;SDS011;5768;51.476;7.210;2023-05-08T06:07:27;15.55;;;14.15;;
11422;SDS011;5768;51.476;7.210;2023-05-08T06:12:32;26.65;;;24.20;;
11422;SDS011;5768;51.476;7.210;2023-05-08T06:17:34;14.02;;;12.63;;
11422;SDS011;5768;51.476;7.210;2023-05-08T06:22:36;12.23;;;11.25;;
11422;SDS011;5768;51.476;7.210;2023-05-08T06:27:40;13.05;;;11.68;;
11422;SDS011;5768;51.476;7.210;2023-05-08T06:32:43;11.73;;;10.70;;
11422;SDS011;5768;51.476;7.210;2023-05-08T06:37:45;11.85;;;10.60;;
11422;SDS011;5768;51.476;7.210;2023-05-08T06:42:48;7.00;;;6.40;;
11422;SDS011;5768;51.476;7.210;2023-05-08T06:47:51;7.43;;;6.28;;
11422;SDS011;5768;51.476;7.210;2023-05-08T06:52:53;6.10;;;5.30;;
11422;SDS011;5768;51.476;7.210;2023-05-08T06:57:56;5.95;;;5.10;;
11422;SDS011;5768;51.476;7.210;2023-05-08T07:02:59;5.40;;;4.90;;
11422;SDS011;5768;51.476;7.210;2023-05-08T07:08:01;5.43;;;4.97;;
11422;SDS011;5768;51.476;7.210;2023-05-08T07:13:05;4.88;;;4.40;;
11422;SDS011;5768;51.476;7.210;2023-05-08T07:18:07;5.53;;;5.03;;
11422;SDS011;5768;51.476;7.210;2023-05-08T07:23:09;5.85;;;5.05;;
11422;SDS011;5768;51.476;7.210;2023-05-08T07:28:13;5.50;;;4.90;;
11422;SDS011;5768;51.476;7.210;2023-05-08T07:33:15;5.45;;;4.78;;
11422;SDS011;5768;51.476;7.210;2023-05-08T07:38:17;5.68;;;5.22;;
11422;SDS011;5768;51.476;7.210;2023-05-08T07:43:21;7.95;;;5.13;;
11422;SDS011;5768;51.476;7.210;2023-05-08T07:48:24;5.25;;;4.80;;
11422;SDS011;5768;51.476;7.210;2023-05-08T07:53:26;5.30;;;4.75;;
11422;SDS011;5768;51.476;7.210;2023-05-08T07:58:30;5.07;;;4.68;;
11422;SDS011;5768;51.476;7.210;2023-05-08T08:03:32;4.88;;;4.32;;
11422;SDS011;5768;51.476;7.210;2023-05-08T08:08:34;4.22;;;3.80;;
11422;SDS011;5768;51.476;7.210;2023-05-08T08:13:38;4.60;;;4.18;;
11422;SDS011;5768;51.476;7.210;2023-05-08T08:18:40;4.53;;;4.13;;
11422;SDS011;5768;51.476;7.210;2023-05-08T08:23:42;3.92;;;3.63;;
11422;SDS011;5768;51.476;7.210;2023-05-08T08:28:46;4.00;;;3.70;;
11422;SDS011;5768;51.476;7.210;2023-05-08T08:33:48;5.10;;;4.65;;
11422;SDS011;5768;51.476;7.210;2023-05-08T08:38:50;6.13;;;4.15;;
11422;SDS011;5768;51.476;7.210;2023-05-08T08:43:54;5.97;;;4.30;;
11422;SDS011;5768;51.476;7.210;2023-05-08T08:48:56;3.92;;;3.63;;
11422;SDS011;5768;51.476;7.210;2023-05-08T08:54:04;4.30;;;3.90;;
11422;SDS011;5768;51.476;7.210;2023-05-08T08:59:11;3.55;;;3.22;;
11422;SDS011;5768;51.476;7.210;2023-05-08T09:04:16;3.55;;;3.25;;
11422;SDS011;5768;51.476;7.210;2023-05-08T09:09:19;3.50;;;3.20;;
11422;SDS011;5768;51.476;7.210;2023-05-08T09:14:23;4.20;;;3.80;;
11422;SDS011;5768;51.476;7.210;2023-05-08T09:19:26;3.60;;;3.30;;
11422;SDS011;5768;51.476;7.210;2023-05-08T09:30:01;3.50;;;3.22;;
11422;SDS011;5768;51.476;7.210;2023-05-08T09:35:06;4.07;;;3.67;;
11422;SDS011;5768;51.476;7.210;2023-05-08T09:40:13;3.97;;;3.60;;
11422;SDS011;5768;51.476;7.210;2023-05-08T09:45:26;3.70;;;3.40;;
11422;SDS011;5768;51.476;7.210;2023-05-08T09:50:30;3.42;;;3.10;;
11422;SDS011;5768;51.476;7.210;2023-05-08T09:55:44;3.88;;;3.47;;
11422;SDS011;5768;51.476;7.210;2023-05-08T10:00:51;4.13;;;3.63;;
11422;SDS011;5768;51.476;7.210;2023-05-08T10:05:53;5.85;;;3.95;;
11422;SDS011;5768;51.476;7.210;2023-05-08T10:10:59;3.92;;;3.55;;
11422;SDS011;5768;51.476;7.210;2023-05-08T10:16:16;8.25;;;3.50;;
11422;SDS011;5768;51.476;7.210;2023-05-08T10:21:19;6.95;;;3.90;;
11422;SDS011;5768;51.476;7.210;2023-05-08T10:26:24;3.67;;;3.38;;
11422;SDS011;5768;51.476;7.210;2023-05-08T10:31:33;4.13;;;3.60;;
11422;SDS011;5768;51.476;7.210;2023-05-08T10:36:36;3.38;;;3.08;;
11422;SDS011;5768;51.476;7.210;2023-05-08T10:41:39;4.45;;;2.97;;
11422;SDS011;5768;51.476;7.210;2023-05-08T10:46:45;3.13;;;2.90;;
11422;SDS011;5768;51.476;7.210;2023-05-08T10:51:57;4.35;;;3.45;;
11422;SDS011;5768;51.476;7.210;2023-05-08T10:57:12;4.75;;;3.10;;
11422;SDS011;5768;51.476;7.210;2023-05-08T11:02:16;3.08;;;2.85;;
11422;SDS011;5768;51.476;7.210;2023-05-08T11:07:29;3.38;;;3.10;;
11422;SDS011;5768;51.476;7.210;2023-05-08T11:12:55;3.55;;;2.88;;
11422;SDS011;5768;51.476;7.210;2023-05-08T11:18:00;2.17;;;2.08;;
11422;SDS011;5768;51.476;7.210;2023-05-08T11:23:21;2.22;;;2.00;;
11422;SDS011;5768;51.476;7.210;2023-05-08T11:28:24;2.67;;;2.22;;
11422;SDS011;5768;51.476;7.210;2023-05-08T11:33:32;2.40;;;1.90;;
11422;SDS011;5768;51.476;7.210;2023-05-08T11:38:36;2.30;;;2.10;;
11422;SDS011;5768;51.476;7.210;2023-05-08T11:49:21;2.47;;;2.10;;
11422;SDS011;5768;51.476;7.210;2023-05-08T11:54:25;3.92;;;2.20;;
11422;SDS011;5768;51.476;7.210;2023-05-08T11:59:33;2.42;;;2.00;;
11422;SDS011;5768;51.476;7.210;2023-05-08T12:04:44;2.33;;;2.00;;
11422;SDS011;5768;51.476;7.210;2023-05-08T12:09:47;2.08;;;1.95;;
11422;SDS011;5768;51.476;7.210;2023-05-08T12:14:49;2.13;;;1.80;;
11422;SDS011;5768;51.476;7.210;2023-05-08T12:19:54;2.00;;;1.88;;
11422;SDS011;5768;51.476;7.210;2023-05-08T12:25:03;3.92;;;1.80;;
11422;SDS011;5768;51.476;7.210;2023-05-08T12:30:08;2.13;;;2.00;;
11422;SDS011;5768;51.476;7.210;2023-05-08T12:35:14;1.92;;;1.77;;
11422;SDS011;5768;51.476;7.210;2023-05-08T12:40:23;4.22;;;1.92;;
11422;SDS011;5768;51.476;7.210;2023-05-08T12:45:28;2.35;;;1.95;;
11422;SDS011;5768;51.476;7.210;2023-05-08T12:50:34;1.80;;;1.70;;
11422;SDS011;5768;51.476;7.210;2023-05-08T12:55:39;2.30;;;2.10;;
11422;SDS011;5768;51.476;7.210;2023-05-08T13:00:52;3.08;;;2.20;;
11422;SDS011;5768;51.476;7.210;2023-05-08T13:06:05;2.60;;;2.40;;
11422;SDS011;5768;51.476;7.210;2023-05-08T13:11:08;2.50;;;2.30;;
11422;SDS011;5768;51.476;7.210;2023-05-08T13:16:10;3.05;;;2.72;;
11422;SDS011;5768;51.476;7.210;2023-05-08T13:21:13;3.60;;;2.40;;
11422;SDS011;5768;51.476;7.210;2023-05-08T13:26:15;3.33;;;3.03;;
11422;SDS011;5768;51.476;7.210;2023-05-08T13:31:17;3.47;;;3.17;;
11422;SDS011;5768;51.476;7.210;2023-05-08T13:36:21;5.53;;;2.85;;
11422;SDS011;5768;51.476;7.210;2023-05-08T13:41:24;5.28;;;4.80;;
11422;SDS011;5768;51.476;7.210;2023-05-08T13:46:26;5.22;;;4.72;;
11422;SDS011;5768;51.476;7.210;2023-05-08T13:51:30;4.10;;;3.53;;
11422;SDS011;5768;51.476;7.210;2023-05-08T13:56:32;4.07;;;3.67;;
11422;SDS011;5768;51.476;7.210;2023-05-08T14:01:34;3.10;;;2.90;;
11422;SDS011;5768;51.476;7.210;2023-05-08T14:06:38;5.57;;;3.28;;
11422;SDS011;5768;51.476;7.210;2023-05-08T14:11:40;8.40;;;6.25;;
11422;SDS011;5768;51.476;7.210;2023-05-08T14:16:42;5.05;;;4.65;;
11422;SDS011;5768;51.476;7.210;2023-05-08T14:21:46;5.25;;;4.20;;
11422;SDS011;5768;51.476;7.210;2023-05-08T14:26:48;4.50;;;4.10;;
11422;SDS011;5768;51.476;7.210;2023-05-08T14:31:51;5.30;;;4.70;;
11422;SDS011;5768;51.476;7.210;2023-05-08T14:36:54;4.53;;;4.03;;
11422;SDS011;5768;51.476;7.210;2023-05-08T14:41:56;6.65;;;6.05;;
11422;SDS011;5768;51.476;7.210;2023-05-08T14:47:01;4.45;;;3.95;;
11422;SDS011;5768;51.476;7.210;2023-05-08T14:52:05;4.15;;;3.85;;
11422;SDS011;5768;51.476;7.210;2023-05-08T14:57:07;11.05;;;10.23;;
11422;SDS011;5768;51.476;7.210;2023-05-08T15:02:09;4.43;;;4.10;;
11422;SDS011;5768;51.476;7.210;2023-05-08T15:07:13;3.47;;;3.17;;
11422;SDS011;5768;51.476;7.210;2023-05-08T15:12:15;4.25;;;3.85;;
11422;SDS011;5768;51.476;7.210;2023-05-08T15:17:17;6.05;;;3.97;;
11422;SDS011;5768;51.476;7.210;2023-05-08T15:22:20;5.28;;;4.38;;
11422;SDS011;5768;51.476;7.210;2023-05-08T15:27:23;4.05;;;3.63;;
11422;SDS011;5768;51.476;7.210;2023-05-08T15:32:25;4.70;;;4.35;;
11422;SDS011;5768;51.476;7.210;2023-05-08T15:37:29;4.82;;;4.22;;
11422;SDS011;5768;51.476;7.210;2023-05-08T15:42:31;4.30;;;3.72;;
11422;SDS011;5768;51.476;7.210;2023-05-08T15:47:33;5.13;;;3.53;;
11422;SDS011;5768;51.476;7.210;2023-05-08T15:52:37;4.97;;;4.57;;
11422;SDS011;5768;51.476;7.210;2023-05-08T15:57:39;3.85;;;3.22;;
11422;SDS011;5768;51.476;7.210;2023-05-08T16:02:41;3.67;;;2.85;;
11422;SDS011;5768;51.476;7.210;2023-05-08T16:07:44;3.17;;;2.88;;
11422;SDS011;5768;51.476;7.210;2023-05-08T16:12:49;2.90;;;2.70;;
11422;SDS011;5768;51.476;7.210;2023-05-08T16:17:51;2.97;;;2.60;;
11422;SDS011;5768;51.476;7.210;2023-05-08T16:22:55;3.55;;;2.75;;
11422;SDS011;5768;51.476;7.210;2023-05-08T16:27:57;3.33;;;3.13;;
11422;SDS011;5768;51.476;7.210;2023-05-08T16:32:59;2.67;;;2.47;;
11422;SDS011;5768;51.476;7.210;2023-05-08T16:38:03;2.85;;;2.65;;
11422;SDS011;5768;51.476;7.210;2023-05-08T16:43:05;2.78;;;2.58;;
11422;SDS011;5768;51.476;7.210;2023-05-08T16:48:08;3.10;;;2.90;;
11422;SDS011;5768;51.476;7.210;2023-05-08T16:53:11;7.88;;;7.20;;
11422;SDS011;5768;51.476;7.210;2023-05-08T16:58:14;3.17;;;2.97;;
11422;SDS011;5768;51.476;7.210;2023-05-08T17:03:16;3.38;;;2.92;;
11422;SDS011;5768;51.476;7.210;2023-05-08T17:08:19;3.17;;;2.97;;
11422;SDS011;5768;51.476;7.210;2023-05-08T17:13:22;4.20;;;3.20;;
11422;SDS011;5768;51.476;7.210;2023-05-08T17:18:24;3.45;;;3.20;;
11422;SDS011;5768;51.476;7.210;2023-05-08T17:23:28;6.50;;;3.63;;
11422;SDS011;5768;51.476;7.210;2023-05-08T17:28:30;3.72;;;3.30;;
11422;SDS011;5768;51.476;7.210;2023-05-08T17:33:32;4.53;;;3.97;;
11422;SDS011;5768;51.476;7.210;2023-05-08T17:38:36;4.25;;;3.95;;
11422;SDS011;5768;51.476;7.210;2023-05-08T17:43:43;4.63;;;4.20;;
11422;SDS011;5768;51.476;7.210;2023-05-08T17:48:52;4.53;;;4.18;;
11422;SDS011;5768;51.476;7.210;2023-05-08T17:53:56;4.28;;;3.97;;
11422;SDS011;5768;51.476;7.210;2023-05-08T17:58:58;4.60;;;4.20;;
11422;SDS011;5768;51.476;7.210;2023-05-08T18:04:00;4.60;;;4.30;;
11422;SDS011;5768;51.476;7.210;2023-05-08T18:09:04;5.88;;;4.43;;
11422;SDS011;5768;51.476;7.210;2023-05-08T18:14:08;5.28;;;4.78;;
11422;SDS011;5768;51.476;7.210;2023-05-08T18:19:13;5.72;;;4.50;;
11422;SDS011;5768;51.476;7.210;2023-05-08T18:24:16;5.80;;;4.72;;
11422;SDS011;5768;51.476;7.210;2023-05-08T18:29:19;6.07;;;5.53;;
11422;SDS011;5768;51.476;7.210;2023-05-08T18:34:21;5.50;;;5.00;;
11422;SDS011;5768;51.476;7.210;2023-05-08T18:39:26;5.38;;;4.97;;
11422;SDS011;5768;51.476;7.210;2023-05-08T18:44:28;5.68;;;4.90;;
11422;SDS011;5768;51.476;7.210;2023-05-08T18:49:31;5.38;;;4.88;;
11422;SDS011;5768;51.476;7.210;2023-05-08T18:54:34;5.88;;;5.28;;
11422;SDS011;5768;51.476;7.210;2023-05-08T18:59:37;5.10;;;4.60;;
11422;SDS011;5768;51.476;7.210;2023-05-08T19:04:39;5.03;;;4.63;;
11422;SDS011;5768;51.476;7.210;2023-05-08T19:09:44;4.68;;;4.38;;
11422;SDS011;5768;51.476;7.210;2023-05-08T19:14:52;5.20;;;4.70;;
11422;SDS011;5768;51.476;7.210;2023-05-08T19:19:56;4.57;;;4.18;;
11422;SDS011;5768;51.476;7.210;2023-05-08T19:24:59;4.63;;;4.25;;
11422;SDS011;5768;51.476;7.210;2023-05-08T19:30:01;5.63;;;4.47;;
11422;SDS011;5768;51.476;7.210;2023-05-08T19:35:07;4.47;;;4.07;;
11422;SDS011;5768;51.476;7.210;2023-05-08T19:40:12;4.53;;;4.07;;
11422;SDS011;5768;51.476;7.210;2023-05-08T19:45:15;6.65;;;4.50;;
11422;SDS011;5768;51.476;7.210;2023-05-08T19:50:17;4.78;;;4.38;;
11422;SDS011;5768;51.476;7.210;2023-05-08T19:55:21;5.63;;;4.13;;
11422;SDS011;5768;51.476;7.210;2023-05-08T20:00:24;5.15;;;4.75;;
11422;SDS011;5768;51.476;7.210;2023-05-08T20:05:26;5.43;;;4.93;;
11422;SDS011;5768;51.476;7.210;2023-05-08T20:10:30;5.38;;;4.90;;
11422;SDS011;5768;51.476;7.210;2023-05-08T20:15:32;4.72;;;4.32;;
11422;SDS011;5768;51.476;7.210;2023-05-08T20:20:35;5.43;;;4.93;;
11422;SDS011;5768;51.476;7.210;2023-05-08T20:25:38;4.95;;;4.55;;
11422;SDS011;5768;51.476;7.210;2023-05-08T20:30:40;5.47;;;4.72;;
11422;SDS011;5768;51.476;7.210;2023-05-08T20:35:43;4.90;;;4.50;;
11422;SDS011;5768;51.476;7.210;2023-05-08T20:40:46;5.47;;;4.88;;
11422;SDS011;5768;51.476;7.210;2023-05-08T20:45:49;6.55;;;5.20;;
11422;SDS011;5768;51.476;7.210;2023-05-08T20:50:51;6.05;;;5.18;;
11422;SDS011;5768;51.476;7.210;2023-05-08T20:55:59;4.78;;;4.47;;
11422;SDS011;5768;51.476;7.210;2023-05-08T21:01:04;5.68;;;5.03;;
11422;SDS011;5768;51.476;7.210;2023-05-08T21:06:07;6.35;;;5.72;;
11422;SDS011;5768;51.476;7.210;2023-05-08T21:11:10;6.18;;;5.20;;
11422;SDS011;5768;51.476;7.210;2023-05-08T21:16:13;6.28;;;5.68;;
11422;SDS011;5768;51.476;7.210;2023-05-08T21:21:17;6.53;;;5.43;;
11422;SDS011;5768;51.476;7.210;2023-05-08T21:26:21;6.20;;;5.70;;
11422;SDS011;5768;51.476;7.210;2023-05-08T21:31:23;5.72;;;5.22;;
11422;SDS011;5768;51.476;7.210;2023-05-08T21:36:27;7.20;;;6.10;;
11422;SDS011;5768;51.476;7.210;2023-05-08T21:41:33;6.40;;;5.72;;
11422;SDS011;5768;51.476;7.210;2023-05-08T21:46:35;6.25;;;5.75;;
11422;SDS011;5768;51.476;7.210;2023-05-08T21:51:39;6.75;;;6.20;;
11422;SDS011;5768;51.476;7.210;2023-05-08T21:56:42;6.88;;;6.38;;
11422;SDS011;5768;51.476;7.210;2023-05-08T22:01:44;7.10;;;6.50;;
11422;SDS011;5768;51.476;7.210;2023-05-08T22:06:47;7.60;;;6.90;;
11422;SDS011;5768;51.476;7.210;2023-05-08T22:11:50;7.93;;;7.22;;
11422;SDS011;5768;51.476;7.210;2023-05-08T22:16:52;8.95;;;7.32;;
11422;SDS011;5768;51.476;7.210;2023-05-08T22:22:03;7.45;;;6.85;;
11422;SDS011;5768;51.476;7.210;2023-05-08T22:27:05;7.82;;;7.13;;
11422;SDS011;5768;51.476;7.210;2023-05-08T22:32:08;8.43;;;7.63;;
11422;SDS011;5768;51.476;7.210;2023-05-08T22:37:11;8.73;;;7.85;;
11422;SDS011;5768;51.476;7.210;2023-05-08T22:42:13;8.23;;;7.53;;
11422;SDS011;5768;51.476;7.210;2023-05-08T22:47:16;8.52;;;7.68;;
11422;SDS011;5768;51.476;7.210;2023-05-08T22:52:20;8.80;;;8.00;;
11422;SDS011;5768;51.476;7.210;2023-05-08T22:57:22;8.70;;;7.90;;
11422;SDS011;5768;51.476;7.210;2023-05-08T23:02:29;8.57;;;7.78;;
11422;SDS011;5768;51.476;7.210;2023-05-08T23:07:33;9.00;;;8.25;;
11422;SDS011;5768;51.476;7.210;2023-05-08T23:12:35;8.82;;;8.13;;
11422;SDS011;5768;51.476;7.210;2023-05-08T23:17:37;8.18;;;7.47;;
11422;SDS011;5768;51.476;7.210;2023-05-08T23:22:41;9.35;;;8.55;;
11422;SDS011;5768;51.476;7.210;2023-05-08T23:27:43;10.63;;;9.25;;
11422;SDS011;5768;51.476;7.210;2023-05-08T23:32:45;10.60;;;9.60;;
11422;SDS011;5768;51.476;7.210;2023-05-08T23:37:49;9.35;;;8.55;;
11422;SDS011;5768;51.476;7.210;2023-05-08T23:42:52;10.40;;;9.43;;
11422;SDS011;5768;51.476;7.210;2023-05-08T23:47:54;9.80;;;9.00;;
11422;SDS011;5768;51.476;7.210;2023-05-08T23:52:58;9.65;;;8.77;;
11422;SDS011;5768;51.476;7.210;2023-05-08T23:58:00;10.98;;;9.98;;
